createdAt,value
2022-08-05T00:00:16.538Z,6.57
2022-08-05T00:02:51.302Z,6.72
2022-08-05T00:06:02.089Z,7.03
2022-08-05T00:08:06.821Z,6.70
2022-08-05T00:10:53.130Z,6.97
2022-08-05T00:13:19.953Z,6.70
2022-08-05T00:15:55.669Z,7.88
2022-08-05T00:18:23.774Z,6.88
2022-08-05T00:20:51.570Z,7.15
2022-08-05T00:23:31.054Z,6.13
2022-08-05T00:26:06.503Z,6.38
2022-08-05T00:28:39.731Z,6.32
2022-08-05T00:31:07.495Z,6.55
2022-08-05T00:34:53.478Z,6.82
2022-08-05T00:37:12.295Z,6.95
2022-08-05T00:39:13.819Z,8.10
2022-08-05T00:41:52.043Z,6.18
2022-08-05T00:44:30.841Z,6.75
2022-08-05T00:47:03.707Z,9.27
2022-08-05T00:49:44.370Z,7.20
2022-08-05T00:52:28.761Z,6.95
2022-08-05T00:54:56.020Z,7.15
2022-08-05T00:57:25.201Z,6.97
2022-08-05T00:59:58.332Z,7.72
2022-08-05T01:02:27.736Z,8.00
2022-08-05T01:04:54.433Z,7.57
2022-08-05T01:07:21.268Z,7.03
2022-08-05T01:09:55.487Z,6.78
2022-08-05T01:12:25.132Z,8.23
2022-08-05T01:15:35.164Z,6.10
2022-08-05T01:18:04.719Z,6.55
2022-08-05T01:21:22.835Z,5.53
2022-08-05T01:23:58.807Z,6.28
2022-08-05T01:26:33.636Z,6.93
2022-08-05T01:29:05.580Z,6.30
2022-08-05T01:31:53.271Z,6.10
2022-08-05T01:34:28.064Z,7.90
2022-08-05T01:37:24.426Z,6.55
2022-08-05T01:39:58.941Z,7.15
2022-08-05T01:42:28.038Z,7.30
2022-08-05T01:44:59.194Z,7.40
2022-08-05T01:47:39.360Z,6.85
2022-08-05T01:50:15.166Z,7.22
2022-08-05T01:52:50.064Z,8.18
2022-08-05T01:55:20.906Z,7.75
2022-08-05T01:58:12.357Z,6.85
2022-08-05T02:00:44.580Z,7.50
2022-08-05T02:03:24.509Z,7.97
2022-08-05T02:06:37.738Z,7.45
2022-08-05T02:08:59.491Z,7.55
2022-08-05T02:11:48.166Z,6.53
2022-08-05T02:14:25.468Z,6.50
2022-08-05T02:17:03.866Z,6.80
2022-08-05T02:19:35.966Z,6.68
2022-08-05T02:22:26.495Z,7.93
2022-08-05T02:25:02.580Z,6.82
2022-08-05T02:27:59.017Z,7.93
2022-08-05T02:30:24.301Z,7.05
2022-08-05T02:32:57.646Z,7.20
2022-08-05T02:35:33.387Z,7.65
2022-08-05T02:38:06.096Z,7.30
2022-08-05T02:40:41.201Z,7.65
2022-08-05T02:43:09.398Z,8.52
2022-08-05T02:45:51.866Z,6.65
2022-08-05T02:48:29.410Z,8.98
2022-08-05T02:51:00.131Z,7.53
2022-08-05T02:53:39.343Z,7.20
2022-08-05T02:56:15.752Z,7.60
2022-08-05T02:58:51.623Z,6.70
2022-08-05T03:01:25.289Z,8.15
2022-08-05T03:04:02.553Z,8.13
2022-08-05T03:06:54.658Z,6.35
2022-08-05T03:09:27.109Z,6.95
2022-08-05T03:12:04.977Z,7.15
2022-08-05T03:14:32.219Z,8.45
2022-08-05T03:16:59.155Z,7.20
2022-08-05T03:19:33.793Z,9.25
2022-08-05T03:22:01.500Z,9.68
2022-08-05T03:24:30.817Z,9.38
2022-08-05T03:27:01.087Z,8.95
2022-08-05T03:29:45.392Z,7.90
2022-08-05T03:32:16.459Z,7.15
2022-08-05T03:34:50.374Z,7.80
2022-08-05T03:37:19.614Z,9.23
2022-08-05T03:39:58.966Z,8.15
2022-08-05T03:42:29.121Z,9.13
2022-08-05T03:44:58.769Z,7.38
2022-08-05T03:47:25.645Z,8.27
2022-08-05T03:49:57.554Z,7.95
2022-08-05T03:52:38.454Z,8.73
2022-08-05T03:56:05.358Z,7.65
2022-08-05T03:58:18.091Z,10.63
2022-08-05T04:00:51.321Z,8.10
2022-08-05T04:03:28.535Z,8.00
2022-08-05T04:05:59.277Z,9.40
2022-08-05T04:08:34.953Z,8.88
2022-08-05T04:11:04.815Z,8.43
2022-08-05T04:13:50.938Z,8.55
2022-08-05T04:16:24.903Z,7.72
2022-08-05T04:18:53.886Z,8.27
2022-08-05T04:22:09.391Z,8.35
2022-08-05T04:24:08.900Z,7.05
2022-08-05T04:26:35.999Z,8.52
2022-08-05T04:29:07.162Z,8.32
2022-08-05T04:31:38.821Z,8.55
2022-08-05T04:34:24.495Z,9.40
2022-08-05T04:36:53.061Z,8.07
2022-08-05T04:39:20.622Z,9.60
2022-08-05T04:41:51.160Z,11.98
2022-08-05T04:44:21.457Z,10.60
2022-08-05T04:46:56.897Z,9.55
2022-08-05T04:49:39.042Z,10.90
2022-08-05T04:52:12.339Z,10.52
2022-08-05T04:54:39.257Z,9.82
2022-08-05T04:57:05.957Z,9.13
2022-08-05T04:59:38.896Z,8.93
2022-08-05T05:02:36.379Z,8.88
2022-08-05T05:05:02.257Z,10.32
2022-08-05T05:07:32.702Z,7.82
2022-08-05T05:10:06.354Z,7.90
2022-08-05T05:12:33.410Z,6.50
2022-08-05T05:15:03.653Z,7.53
2022-08-05T05:17:57.067Z,7.28
2022-08-05T05:20:28.272Z,7.22
2022-08-05T05:22:56.089Z,6.28
2022-08-05T05:25:40.246Z,7.18
2022-08-05T05:28:09.746Z,6.72
2022-08-05T05:30:37.306Z,6.40
2022-08-05T05:33:16.602Z,7.72
2022-08-05T05:35:45.850Z,7.15
2022-08-05T05:38:14.156Z,7.18
2022-08-05T05:40:49.645Z,7.53
2022-08-05T05:43:21.892Z,8.88
2022-08-05T05:46:13.774Z,8.13
2022-08-05T05:48:44.255Z,7.57
2022-08-05T05:51:15.865Z,8.48
2022-08-05T05:53:54.310Z,7.38
2022-08-05T05:56:32.825Z,7.38
2022-08-05T05:59:06.394Z,6.80
2022-08-05T06:01:39.836Z,6.45
2022-08-05T06:04:14.724Z,6.80
2022-08-05T06:06:47.431Z,7.05
2022-08-05T06:09:16.974Z,7.22
2022-08-05T06:12:01.097Z,5.78
2022-08-05T06:14:34.839Z,6.22
2022-08-05T06:17:22.158Z,6.55
2022-08-05T06:19:56.908Z,5.60
2022-08-05T06:22:33.512Z,6.38
2022-08-05T06:25:01.207Z,5.88
2022-08-05T06:28:09.409Z,4.82
2022-08-05T06:30:34.571Z,4.93
2022-08-05T06:33:01.587Z,7.07
2022-08-05T06:36:07.913Z,8.88
2022-08-05T06:38:15.065Z,5.13
2022-08-05T06:40:44.636Z,5.57
2022-08-05T06:43:57.903Z,5.60
2022-08-05T06:46:03.750Z,5.55
2022-08-05T06:51:29.399Z,5.18
2022-08-05T06:54:02.486Z,4.00
2022-08-05T06:56:34.972Z,4.15
2022-08-05T06:59:03.329Z,4.68
2022-08-05T07:01:32.752Z,3.85
2022-08-05T07:04:02.475Z,3.22
2022-08-05T07:06:31.925Z,3.63
2022-08-05T07:08:59.622Z,3.88
2022-08-05T07:11:31.430Z,3.28
2022-08-05T07:14:29.694Z,3.13
2022-08-05T07:17:58.405Z,4.63
2022-08-05T07:20:31.698Z,3.15
2022-08-05T07:22:37.353Z,3.55
2022-08-05T07:25:22.995Z,4.07
2022-08-05T07:28:05.778Z,4.05
2022-08-05T07:30:38.543Z,4.80
2022-08-05T07:33:17.081Z,5.32
2022-08-05T07:36:01.937Z,3.50
2022-08-05T07:38:42.823Z,4.00
2022-08-05T07:42:06.943Z,4.97
2022-08-05T07:44:03.311Z,3.22
2022-08-05T07:46:31.838Z,3.75
2022-08-05T07:49:05.845Z,3.15
2022-08-05T07:51:40.874Z,3.78
2022-08-05T07:54:15.642Z,2.75
2022-08-05T07:57:02.320Z,3.00
2022-08-05T07:59:40.024Z,2.90
2022-08-05T08:02:17.024Z,3.22
2022-08-05T08:04:49.414Z,3.38
2022-08-05T08:07:18.395Z,3.38
2022-08-05T08:09:52.299Z,3.08
2022-08-05T08:12:35.521Z,5.10
2022-08-05T08:15:13.898Z,3.00
2022-08-05T08:17:50.651Z,4.30
2022-08-05T08:20:44.014Z,3.42
2022-08-05T08:23:59.994Z,4.10
2022-08-05T08:25:59.431Z,4.68
2022-08-05T08:28:35.803Z,4.72
2022-08-05T08:31:04.511Z,4.03
2022-08-05T08:33:35.922Z,4.35
2022-08-05T08:36:38.670Z,3.23
2022-08-05T08:38:55.685Z,3.00
2022-08-05T08:41:50.741Z,3.42
2022-08-05T08:45:24.898Z,3.55
2022-08-05T08:47:47.086Z,4.63
2022-08-05T08:50:14.609Z,3.78
2022-08-05T08:52:51.769Z,5.95
2022-08-05T08:56:02.848Z,3.33
2022-08-05T08:58:15.676Z,5.75
2022-08-05T09:00:42.998Z,4.53
2022-08-05T09:03:16.305Z,5.57
2022-08-05T09:06:09.180Z,3.60
2022-08-05T09:08:34.900Z,5.45
2022-08-05T09:11:05.255Z,4.05
2022-08-05T09:14:09.535Z,4.18
2022-08-05T09:16:22.660Z,4.10
2022-08-05T09:18:53.664Z,8.70
2022-08-05T09:22:22.474Z,3.42
2022-08-05T09:24:13.256Z,3.60
2022-08-05T09:26:46.438Z,3.33
2022-08-05T09:29:18.883Z,3.28
2022-08-05T09:32:51.104Z,4.03
2022-08-05T09:34:56.373Z,4.00
2022-08-05T09:38:13.054Z,4.28
2022-08-05T09:40:41.143Z,3.63
2022-08-05T09:46:06.618Z,3.88
2022-08-05T09:48:37.435Z,3.55
2022-08-05T09:51:07.601Z,4.03
2022-08-05T09:53:59.383Z,4.45
2022-08-05T09:56:35.461Z,4.10
2022-08-05T09:59:17.170Z,3.80
2022-08-05T10:01:46.639Z,3.25
2022-08-05T10:04:16.212Z,3.00
2022-08-05T10:06:58.974Z,2.50
2022-08-05T10:09:28.193Z,3.53
2022-08-05T10:12:18.959Z,3.75
2022-08-05T10:15:20.412Z,3.30
2022-08-05T10:18:24.188Z,2.95
2022-08-05T10:20:53.507Z,3.08
2022-08-05T10:23:56.155Z,3.35
2022-08-05T10:26:13.800Z,4.90
2022-08-05T10:28:43.076Z,2.75
2022-08-05T10:32:50.751Z,4.00
2022-08-05T10:34:02.496Z,2.30
2022-08-05T10:36:30.836Z,3.28
2022-08-05T10:39:10.493Z,4.28
2022-08-05T10:42:01.146Z,3.87
2022-08-05T10:44:32.581Z,2.55
2022-08-05T10:46:59.419Z,3.88
2022-08-05T10:49:33.069Z,3.75
2022-08-05T10:52:05.074Z,2.90
2022-08-05T10:55:05.389Z,4.00
2022-08-05T10:57:35.106Z,3.97
2022-08-05T11:00:23.051Z,3.53
2022-08-05T11:03:24.216Z,3.00
2022-08-05T11:06:03.811Z,3.38
2022-08-05T11:08:37.019Z,3.17
2022-08-05T11:11:52.382Z,5.35
2022-08-05T11:14:49.409Z,3.25
2022-08-05T11:17:59.038Z,3.95
2022-08-05T11:20:46.544Z,2.88
2022-08-05T11:24:05.160Z,3.50
2022-08-05T11:26:28.836Z,3.42
2022-08-05T11:29:11.741Z,3.35
2022-08-05T11:31:57.453Z,4.82
2022-08-05T11:34:50.985Z,3.50
2022-08-05T11:38:28.838Z,5.00
2022-08-05T11:41:14.119Z,4.95
2022-08-05T11:44:05.628Z,4.10
2022-08-05T11:46:34.337Z,3.45
2022-08-05T11:49:03.350Z,3.70
2022-08-05T11:51:44.256Z,4.60
2022-08-05T11:54:33.831Z,5.15
2022-08-05T11:57:08.143Z,4.05
2022-08-05T11:59:50.658Z,3.88
2022-08-05T12:02:23.889Z,3.72
2022-08-05T12:05:00.003Z,4.70
2022-08-05T12:08:09.100Z,4.00
2022-08-05T12:10:23.022Z,3.50
2022-08-05T12:12:59.969Z,5.18
2022-08-05T12:15:38.061Z,4.30
2022-08-05T12:18:10.776Z,5.03
2022-08-05T12:20:43.817Z,3.83
2022-08-05T12:23:12.794Z,3.75
2022-08-05T12:25:56.791Z,3.05
2022-08-05T12:28:37.835Z,4.78
2022-08-05T12:31:07.963Z,5.25
2022-08-05T12:33:39.244Z,4.53
2022-08-05T12:38:39.987Z,4.00
2022-08-05T12:41:14.016Z,5.40
2022-08-05T12:43:58.846Z,5.10
2022-08-05T12:46:33.815Z,4.90
2022-08-05T12:49:25.656Z,4.05
2022-08-05T12:52:26.995Z,4.72
2022-08-05T12:54:59.366Z,3.88
2022-08-05T12:58:38.734Z,4.22
2022-08-05T13:02:02.929Z,3.15
2022-08-05T13:03:14.705Z,4.40
2022-08-05T13:05:41.698Z,4.40
2022-08-05T13:08:09.518Z,4.88
2022-08-05T13:10:50.297Z,4.05
2022-08-05T13:14:06.134Z,4.93
2022-08-05T13:16:13.094Z,4.55
2022-08-05T13:18:58.442Z,5.43
2022-08-05T13:21:38.053Z,5.40
2022-08-05T13:24:27.680Z,4.20
2022-08-05T13:27:03.985Z,4.53
2022-08-05T13:29:37.274Z,4.22
2022-08-05T13:32:08.271Z,3.97
2022-08-05T13:34:37.914Z,5.03
2022-08-05T13:37:07.608Z,6.22
2022-08-05T13:40:14.996Z,3.45
2022-08-05T13:42:23.469Z,3.92
2022-08-05T13:44:57.851Z,4.75
2022-08-05T13:47:35.135Z,4.17
2022-08-05T13:50:06.350Z,3.70
2022-08-05T13:52:35.870Z,5.47
2022-08-05T13:55:07.891Z,4.45
2022-08-05T13:57:51.441Z,5.38
2022-08-05T14:00:27.106Z,5.25
2022-08-05T14:02:58.091Z,4.68
2022-08-05T14:06:04.602Z,5.57
2022-08-05T14:08:20.833Z,5.43
2022-08-05T14:11:03.099Z,6.10
2022-08-05T14:13:41.359Z,4.85
2022-08-05T14:16:11.567Z,5.47
2022-08-05T14:18:39.758Z,5.50
2022-08-05T14:22:07.729Z,5.60
2022-08-05T14:23:54.354Z,5.82
2022-08-05T14:26:38.675Z,7.65
2022-08-05T14:29:16.063Z,10.95
2022-08-05T14:32:03.227Z,6.70
2022-08-05T14:34:34.966Z,6.40
2022-08-05T14:37:04.893Z,11.20
2022-08-05T14:39:49.726Z,14.20
2022-08-05T14:42:21.372Z,7.20
2022-08-05T14:44:56.572Z,7.43
2022-08-05T14:48:02.993Z,5.13
2022-08-05T14:50:17.559Z,4.38
2022-08-05T14:52:53.571Z,4.78
2022-08-05T14:55:25.312Z,5.85
2022-08-05T14:57:56.003Z,5.30
2022-08-05T15:00:28.197Z,6.00
2022-08-05T15:02:56.626Z,4.82
2022-08-05T15:05:29.995Z,6.25
2022-08-05T15:08:17.834Z,5.07
2022-08-05T15:11:00.704Z,5.25
2022-08-05T15:13:28.667Z,7.20
2022-08-05T15:16:15.991Z,5.28
2022-08-05T15:18:43.723Z,4.85
2022-08-05T15:21:14.040Z,5.07
2022-08-05T15:23:41.502Z,5.95
2022-08-05T15:26:08.287Z,5.35
2022-08-05T15:28:35.793Z,5.10
2022-08-05T15:31:10.258Z,5.38
2022-08-05T15:34:04.376Z,5.20
2022-08-05T15:36:24.665Z,5.45
2022-08-05T15:41:00.357Z,6.28
2022-08-05T15:41:58.484Z,4.78
2022-08-05T15:44:27.741Z,4.60
2022-08-05T15:46:56.026Z,5.30
2022-08-05T15:49:53.411Z,5.63
2022-08-05T15:52:16.668Z,4.25
2022-08-05T15:54:55.782Z,5.30
2022-08-05T15:57:23.935Z,5.50
2022-08-05T15:59:56.727Z,4.85
2022-08-05T16:02:28.502Z,5.78
2022-08-05T16:04:56.000Z,4.70
2022-08-05T16:07:23.051Z,5.03
2022-08-05T16:09:50.249Z,5.35
2022-08-05T16:12:19.803Z,5.70
2022-08-05T16:14:47.974Z,4.72
2022-08-05T16:17:14.714Z,4.80
2022-08-05T16:20:04.467Z,4.20
2022-08-05T16:22:33.878Z,4.82
2022-08-05T16:25:07.951Z,4.82
2022-08-05T16:27:46.992Z,6.30
2022-08-05T16:30:26.145Z,5.13
2022-08-05T16:32:55.422Z,4.97
2022-08-05T16:35:28.055Z,4.88
2022-08-05T16:38:15.276Z,6.18
2022-08-05T16:40:51.711Z,5.47
2022-08-05T16:43:23.850Z,6.18
2022-08-05T16:46:04.414Z,5.43
2022-08-05T16:48:39.290Z,4.97
2022-08-05T16:51:09.298Z,4.13
2022-08-05T16:54:03.458Z,4.32
2022-08-05T16:56:26.143Z,4.32
2022-08-05T16:58:55.330Z,4.97
2022-08-05T17:01:22.180Z,6.05
2022-08-05T17:03:51.991Z,4.80
2022-08-05T17:06:19.395Z,5.95
2022-08-05T17:08:53.132Z,5.13
2022-08-05T17:11:25.150Z,5.65
2022-08-05T17:14:00.647Z,5.03
2022-08-05T17:16:36.593Z,5.40
2022-08-05T17:19:09.634Z,5.40
2022-08-05T17:21:39.796Z,4.93
2022-08-05T17:24:30.180Z,6.40
2022-08-05T17:26:56.797Z,5.30
2022-08-05T17:29:33.302Z,4.60
2022-08-05T17:32:16.768Z,5.78
2022-08-05T17:34:47.509Z,6.30
2022-08-05T17:37:40.617Z,9.90
2022-08-05T17:40:10.159Z,6.68
2022-08-05T17:42:42.894Z,8.50
2022-08-05T17:45:22.615Z,9.13
2022-08-05T17:47:59.175Z,8.80
2022-08-05T17:50:30.386Z,7.70
2022-08-05T17:53:08.694Z,6.60
2022-08-05T17:55:38.469Z,8.80
2022-08-05T17:58:14.651Z,10.38
2022-08-05T18:00:47.884Z,8.88
2022-08-05T18:06:12.369Z,7.43
2022-08-05T18:08:45.835Z,8.43
2022-08-05T18:11:24.183Z,9.35
2022-08-05T18:14:03.285Z,9.63
2022-08-05T18:16:31.209Z,8.20
2022-08-05T18:18:58.050Z,9.75
2022-08-05T18:21:26.380Z,8.25
2022-08-05T18:23:55.001Z,8.07
2022-08-05T18:26:29.085Z,9.80
2022-08-05T18:28:58.331Z,8.32
2022-08-05T18:31:25.081Z,8.32
2022-08-05T18:33:52.428Z,7.47
2022-08-05T18:36:27.909Z,8.85
2022-08-05T18:38:55.482Z,10.13
2022-08-05T18:41:53.397Z,8.30
2022-08-05T18:44:09.089Z,14.00
2022-08-05T18:46:36.271Z,10.18
2022-08-05T18:49:21.734Z,8.45
2022-08-05T18:52:08.652Z,10.23
2022-08-05T18:54:35.980Z,10.48
2022-08-05T18:57:09.650Z,9.05
2022-08-05T19:00:03.275Z,8.75
2022-08-05T19:02:30.189Z,7.95
2022-08-05T19:05:02.948Z,9.02
2022-08-05T19:07:52.301Z,8.32
2022-08-05T19:10:28.221Z,9.05
2022-08-05T19:12:58.051Z,7.75
2022-08-05T19:15:59.407Z,8.55
2022-08-05T19:18:22.018Z,7.75
2022-08-05T19:20:52.433Z,8.05
2022-08-05T19:24:04.119Z,6.50
2022-08-05T19:26:09.171Z,7.50
2022-08-05T19:28:43.672Z,7.53
2022-08-05T19:31:13.292Z,6.80
2022-08-05T19:33:48.219Z,7.90
2022-08-05T19:36:23.603Z,7.32
2022-08-05T19:38:50.282Z,7.28
2022-08-05T19:41:21.857Z,7.93
2022-08-05T19:44:12.774Z,6.47
2022-08-05T19:46:41.138Z,7.63
2022-08-05T19:49:16.485Z,7.00
2022-08-05T19:52:09.220Z,6.75
2022-08-05T19:54:34.314Z,7.28
2022-08-05T19:57:06.619Z,5.68
2022-08-05T19:59:55.577Z,6.40
2022-08-05T20:02:27.932Z,6.70
2022-08-05T20:04:58.739Z,6.60
2022-08-05T20:07:47.277Z,7.53
2022-08-05T20:10:16.488Z,7.90
2022-08-05T20:12:47.994Z,7.65
2022-08-05T20:15:48.406Z,7.65
2022-08-05T20:18:10.354Z,7.45
2022-08-05T20:20:57.056Z,6.70
2022-08-05T20:23:39.324Z,7.72
2022-08-05T20:26:15.421Z,6.72
2022-08-05T20:28:48.729Z,7.32
2022-08-05T20:31:21.583Z,8.68
2022-08-05T20:33:50.249Z,9.35
2022-08-05T20:36:18.258Z,7.97
2022-08-05T20:38:53.780Z,7.28
2022-08-05T20:41:27.083Z,8.30
2022-08-05T20:46:55.470Z,6.85
2022-08-05T20:49:24.361Z,8.48
2022-08-05T20:51:54.033Z,7.88
2022-08-05T20:54:21.305Z,7.78
2022-08-05T20:56:48.970Z,6.93
2022-08-05T20:59:26.295Z,8.43
2022-08-05T21:02:03.903Z,7.40
2022-08-05T21:04:33.846Z,7.55
2022-08-05T21:07:03.259Z,8.80
2022-08-05T21:09:29.909Z,8.05
2022-08-05T21:12:10.729Z,6.22
2022-08-05T21:14:38.795Z,6.47
2022-08-05T21:17:06.062Z,7.65
2022-08-05T21:19:46.611Z,7.78
2022-08-05T21:22:18.666Z,7.15
2022-08-05T21:24:52.001Z,8.82
2022-08-05T21:27:25.338Z,6.55
2022-08-05T21:29:57.087Z,6.88
2022-08-05T21:32:28.554Z,7.53
2022-08-05T21:35:16.708Z,7.40
2022-08-05T21:37:47.124Z,6.68
2022-08-05T21:40:20.668Z,6.35
2022-08-05T21:42:52.017Z,9.32
2022-08-05T21:45:25.043Z,7.72
2022-08-05T21:50:34.898Z,6.75
2022-08-05T21:53:17.456Z,10.02
2022-08-05T21:56:06.334Z,7.35
2022-08-05T21:58:32.163Z,7.95
2022-08-05T22:00:59.981Z,10.75
2022-08-05T22:03:48.652Z,6.93
2022-08-05T22:06:15.938Z,7.45
2022-08-05T22:08:51.778Z,6.97
2022-08-05T22:11:19.921Z,8.23
2022-08-05T22:14:18.209Z,7.55
2022-08-05T22:16:51.111Z,7.97
2022-08-05T22:20:02.225Z,7.97
2022-08-05T22:22:07.324Z,6.20
2022-08-05T22:24:55.766Z,7.72
2022-08-05T22:28:09.869Z,7.70
2022-08-05T22:30:44.302Z,8.87
2022-08-05T22:36:15.518Z,8.13
2022-08-05T22:38:48.082Z,6.40
2022-08-05T22:41:16.609Z,8.07
2022-08-05T22:44:03.439Z,8.65
2022-08-05T22:46:30.112Z,7.78
2022-08-05T22:48:56.780Z,6.90
2022-08-05T22:52:04.701Z,7.22
2022-08-05T22:54:10.413Z,8.02
2022-08-05T22:56:40.040Z,7.47
2022-08-05T22:59:43.582Z,8.15
2022-08-05T23:02:06.038Z,6.97
2022-08-05T23:04:35.068Z,7.72
2022-08-05T23:07:05.746Z,8.13
2022-08-05T23:09:57.933Z,7.28
2022-08-05T23:12:23.813Z,8.80
2022-08-05T23:14:51.573Z,7.85
2022-08-05T23:17:34.555Z,7.97
2022-08-05T23:20:10.457Z,7.55
2022-08-05T23:22:47.305Z,7.47
2022-08-05T23:25:17.637Z,8.18
2022-08-05T23:28:01.568Z,8.07
2022-08-05T23:30:28.978Z,7.15
2022-08-05T23:32:55.855Z,6.72
2022-08-05T23:35:25.117Z,8.55
2022-08-05T23:38:00.881Z,7.30
2022-08-05T23:40:27.680Z,6.47
2022-08-05T23:42:54.469Z,7.88
2022-08-05T23:45:21.258Z,7.10
2022-08-05T23:47:52.066Z,8.95
2022-08-05T23:50:20.714Z,7.50
2022-08-05T23:52:50.135Z,7.95
2022-08-05T23:55:19.273Z,7.13
2022-08-05T23:57:49.009Z,7.68
